Ralph M Calhoun Memorial Airport

Jump to: basic info | weather | runways | comments

Related pages: nearby airports | nearby navaids | notams | map

Basic information (top)

Codes: TAL PATA
Location: lon 65.174400, lat -152.108994, elev 236 ft / 72 m msl
Status: small_airport
Scheduled airline service: no
Links: Wikipedia Mobile

Weather (top)

Current conditions (rec'd 2014/04/16 03:52Z):

PATA 160352Z 12006KT 10SM SCT060 OVC130 05/M02 A2974

Airport forecast (rec'd 2014/04/15 00:42Z):

TAF PATA 152336Z 1600/1624 09007KT P6SM SCT150 
     FM160300 05005KT P6SM VCSH SCT025 BKN050 
     FM160900 VRB03KT 3SM -SHRASN BR OVC015 
     FM161500 VRB03KT 4SM -SHSN BR OVC025 
     FM161800 VRB03KT P6SM SCT025 OVC050

Runways (top)

07/25: 4,400 x 150 ft (1,341 x 46 m) — other (GRVL-P) — not lighted

Latest comments (top)

Memorial for what?: As I did not know him personally, I did ... [read]

More... (top)

See also NOTAMs and nearby airports and navaids, or visit the Ralph M Calhoun Memorial Airport page at the main OurAirports website..